ADDS METAR Data INFO
IDs: Format: Raw Decoded Include TAF

Data at: 1100 UTC 24 Nov 2017

KFWS 241055Z AUTO 18005KT 10SM CLR 08/00 A2996 RMK AO2 T00780000
KFWS 241035Z AUTO 19003KT 10SM CLR 09/00 A2996 RMK AO2 T00850000
KFWS 241015Z AUTO 19004KT 10SM CLR 09/00 A2997 RMK AO2 T00880000
KFWS 240955Z AUTO 19004KT 10SM CLR 09/00 A2997 RMK AO2 T00880000
KFWS 240935Z AUTO 19005KT 10SM CLR 09/00 A2998 RMK AO2 T00930000
KFWS 240915Z AUTO 19006KT 10SM CLR 10/00 A2998 RMK AO2 T00960000
KFWS 240855Z AUTO 19006KT 10SM CLR 09/00 A2999 RMK AO2 T00940000
KFWS 240835Z AUTO 18004KT 10SM CLR 10/00 A2999 RMK AO2 T00961001
KFWS 240815Z AUTO 19004KT 10SM CLR 10/00 A3000 RMK AO2 T00981001
KFWS 240755Z AUTO 19004KT 10SM CLR 10/00 A3000 RMK AO2 T01010000
KFWS 240735Z AUTO 18005KT 10SM CLR 10/00 A3002 RMK AO2 T01010000
KFWS 240715Z AUTO 19005KT 10SM CLR 10/00 A3002 RMK AO2 T01031001
KFWS 240655Z AUTO 18005KT 10SM CLR 10/00 A3002 RMK AO2 T01020000
KFWS 240635Z AUTO 19005KT 10SM CLR 11/00 A3003 RMK AO2 T01080001
KFWS 240615Z AUTO 19006KT 10SM CLR 11/00 A3004 RMK AO2 T01050001
KFWS 240555Z AUTO 19006KT 10SM CLR 11/00 A3004 RMK AO2 T01080000 10153 20105 402151016
KFWS 240535Z AUTO 19004KT 10SM CLR 11/00 A3005 RMK AO2 T01101005
KFWS 240515Z AUTO 18005KT 10SM CLR 11/M01 A3005 RMK AO2 T01071007
KFWS 240455Z AUTO 18005KT 10SM CLR 11/M01 A3006 RMK AO2 T01051007
KFWS 240435Z AUTO 19004KT 10SM CLR 11/M01 A3006 RMK AO2 T01121010
KFWS 240415Z AUTO 18005KT 10SM CLR 12/M01 A3006 RMK AO2 T01161013
KFWS 240355Z AUTO 17004KT 10SM CLR 12/M01 A3006 RMK AO2 T01161011
KFWS 240335Z AUTO 19003KT 10SM CLR 12/M01 A3006 RMK AO2 T01211011
KFWS 240315Z AUTO 19005KT 10SM CLR 12/M01 A3006 RMK AO2 T01211011
KFWS 240255Z AUTO 17004KT 10SM CLR 12/M01 A3006 RMK AO2 T01181010
KFWS 240235Z AUTO 18003KT 10SM CLR 13/M01 A3007 RMK AO2 T01261012
KFWS 240215Z AUTO 18005KT 10SM CLR 12/M01 A3007 RMK AO2 T01211007
KFWS 240155Z AUTO 18006KT 10SM CLR 12/00 A3007 RMK AO2 T01241005
KFWS 240049Z 00000KT 10SM CLR 13/00 A3006
KFWS 232346Z 13004KT 10SM CLR 16/M01 A3006
KFWS 232255Z 14004KT 10SM CLR 19/M01 A3006
KFWS 232152Z 15004KT 10SM CLR 21/M01 A3006
KFWS 232050Z 14004KT 10SM CLR 22/M02 A3007
KFWS 231959Z 19004KT 10SM CLR 21/M02 A3009
KFWS 231850Z 16003KT 10SM CLR 19/M01 A3011
KFWS 231746Z 21005KT 10SM CLR 18/M02 A3017
KFWS 231646Z 20003KT 10SM CLR 16/M02 A3020
KFWS 231546Z 00000KT 10SM CLR 12/M03 A3021
KFWS 231446Z 00000KT 10SM CLR 07/01 A3021
KFWS 231346Z 00000KT 10SM CLR 00/M02 A3021
KFWS 231246Z 00000KT 10SM CLR M01/M02 A3020
KFWS 231235Z AUTO 00000KT 10SM CLR M01/M03 A3020 RMK AO2 T10121026
KFWS 231215Z AUTO 00000KT 10SM CLR M01/M03 A3021 RMK AO2 T10151030
KFWS 231155Z AUTO 00000KT 10SM CLR 00/M02 A3021 RMK AO2 T10041025 10011 21016
KFWS 231135Z AUTO 00000KT 10SM CLR 00/M02 A3021 RMK AO2 T10021020
KFWS 231115Z AUTO 00000KT 10SM CLR M01/M02 A3022 RMK AO2 T10091022
KFWS 231055Z AUTO 00000KT 10SM CLR M02/M03 A3021 RMK AO2 T10161031
KFWS 231035Z AUTO 00000KT 10SM CLR M01/M02 A3022 RMK AO2 T10101025
KFWS 231015Z AUTO 00000KT 10SM CLR M01/M02 A3022 RMK AO2 T10081022
KFWS 230955Z AUTO 00000KT 10SM CLR M01/M03 A3023 RMK AO2 T10101026
KFWS 230935Z AUTO 00000KT 10SM CLR M01/M03 A3023 RMK AO2 T10101026
KFWS 230915Z AUTO 00000KT 10SM CLR M01/M03 A3023 RMK AO2 T10111026
KFWS 230855Z AUTO 00000KT 10SM CLR M01/M03 A3024 RMK AO2 T10111029
KFWS 230835Z AUTO 00000KT 7SM CLR M01/M02 A3024 RMK AO2 T10061025
KFWS 230815Z AUTO 00000KT 3SM BR CLR 00/M02 A3024 RMK AO2 T10051025
KFWS 230755Z AUTO 00000KT 2SM BR CLR 00/M03 A3025 RMK AO2 T10051026
KFWS 230735Z AUTO 00000KT 10SM CLR M01/M03 A3026 RMK AO2 T10071028
KFWS 230715Z AUTO 00000KT 10SM CLR 00/M03 A3027 RMK AO2 T10041029
KFWS 230655Z AUTO 00000KT 10SM CLR 00/M02 A3027 RMK AO2 T00001025
KFWS 230635Z AUTO 00000KT 10SM CLR 01/M01 A3027 RMK AO2 T00081015
KFWS 230615Z AUTO 00000KT 7SM CLR 00/M02 A3027 RMK AO2 T00001025
KFWS 230555Z AUTO 00000KT 7SM CLR 00/M03 A3027 RMK AO2 T00011026 10091 20000 401360000
KFWS 230535Z AUTO 00000KT 7SM CLR 00/M02 A3028 RMK AO2 T00031021
KFWS 230515Z AUTO 00000KT 10SM CLR 00/M02 A3028 RMK AO2 T00041025
KFWS 230455Z AUTO 00000KT 10SM CLR 01/M02 A3028 RMK AO2 T00111018
KFWS 230435Z AUTO 18003KT 10SM CLR 01/M02 A3028 RMK AO2 T00061021
KFWS 230415Z AUTO 00000KT 10SM CLR 01/M03 A3029 RMK AO2 T00141030
KFWS 230355Z AUTO 00000KT 10SM CLR 03/M02 A3030 RMK AO2 T00301022
KFWS 230335Z AUTO 00000KT 10SM CLR 02/M03 A3030 RMK AO2 T00231031
KFWS 230315Z AUTO 00000KT 10SM CLR 02/M03 A3030 RMK AO2 T00221032
KFWS 230255Z AUTO 00000KT 10SM CLR 04/M04 A3030 RMK AO2 T00431037
KFWS 230235Z AUTO 00000KT 7SM CLR 03/M03 A3030 RMK AO2 T00251032
KFWS 230215Z AUTO 00000KT 10SM CLR 04/M03 A3030 RMK AO2 T00421031
KFWS 230155Z AUTO 00000KT 10SM CLR 05/M05 A3029 RMK AO2 T00521049
KFWS 230050Z 31003KT 10SM CLR 08/M06 A3029
KFWS 222348Z 32005KT 10SM CLR 09/M07 A3029